Time;durP1;ratioP1;P1;durP2;ratioP2;P2;SDS_P1;SDS_P2;PMS_P1;PMS_P2;Temp;Humidity;BMP_temperature;BMP_pressure;BME280_temperature;BME280_humidity;BME280_pressure;Samples;Min_cycle;Max_cycle;Signal;HPM_P1;HPM_P2
2022/06/11 00:01:24;;;;;;;9.10;6.25;;;14.20;99.90;;;;;;4938606;29;20040;-74
2022/06/11 00:03:55;;;;;;;8.80;7.00;;;14.10;99.90;;;;;;4938612;29;20083;-73
2022/06/11 00:06:22;;;;;;;14.02;7.10;;;14.10;99.90;;;;;;4937326;29;20114;-74
2022/06/11 00:08:48;;;;;;;7.90;7.07;;;14.20;99.90;;;;;;4938468;29;20368;-74
2022/06/11 00:11:14;;;;;;;7.93;7.20;;;14.10;99.90;;;;;;4937169;29;20043;-74
2022/06/11 00:13:41;;;;;;;10.38;7.15;;;14.10;99.90;;;;;;4938347;29;20031;-74
2022/06/11 00:16:08;;;;;;;7.55;6.43;;;14.10;99.90;;;;;;4936982;29;20047;-74
2022/06/11 00:18:35;;;;;;;8.63;6.72;;;14.10;99.90;;;;;;4937967;29;20559;-73
2022/06/11 00:21:01;;;;;;;8.10;7.30;;;14.10;99.90;;;;;;4938212;29;20111;-74
2022/06/11 00:23:27;;;;;;;9.32;6.80;;;14.10;99.90;;;;;;4937865;29;20111;-74
2022/06/11 00:25:53;;;;;;;10.63;6.72;;;14.10;99.90;;;;;;4952473;29;20496;-74
2022/06/11 00:28:19;;;;;;;9.70;7.10;;;14.00;99.90;;;;;;4939728;29;20037;-74
2022/06/11 00:30:46;;;;;;;10.60;7.07;;;14.00;99.90;;;;;;4957205;29;20025;-75
2022/06/11 00:33:11;;;;;;;7.28;6.57;;;13.90;99.90;;;;;;4939802;29;20032;-73
2022/06/11 00:35:39;;;;;;;9.43;7.63;;;13.90;99.90;;;;;;4957085;29;20058;-74
2022/06/11 00:38:05;;;;;;;11.20;7.15;;;13.90;99.90;;;;;;4956675;29;20038;-74
2022/06/11 00:40:34;;;;;;;7.15;6.45;;;13.90;99.90;;;;;;4957025;29;20028;-74
2022/06/11 00:43:00;;;;;;;8.43;7.57;;;13.90;99.90;;;;;;4957042;29;20035;-74
2022/06/11 00:45:28;;;;;;;7.93;7.00;;;13.90;99.90;;;;;;4939734;29;20043;-74
2022/06/11 00:48:05;;;;;;;12.30;7.35;;;13.80;99.90;;;;;;4956886;29;20027;-74
2022/06/11 00:50:43;;;;;;;8.18;7.38;;;13.80;99.90;;;;;;4956892;29;20034;-74
2022/06/11 00:53:18;;;;;;;13.65;8.20;;;13.80;99.90;;;;;;4939858;29;20050;-74
2022/06/11 00:55:46;;;;;;;11.30;7.57;;;13.80;99.90;;;;;;4956861;29;20126;-74
2022/06/11 00:58:17;;;;;;;7.88;7.20;;;13.70;99.90;;;;;;4939779;29;20500;-74
2022/06/11 01:00:58;;;;;;;8.80;7.53;;;13.70;99.90;;;;;;4956969;29;20055;-74
2022/06/11 01:03:30;;;;;;;12.00;7.47;;;13.70;99.90;;;;;;4956626;29;20031;-73
2022/06/11 01:06:16;;;;;;;10.88;7.82;;;13.80;99.90;;;;;;4939201;29;20490;-73
2022/06/11 01:08:51;;;;;;;8.13;7.32;;;13.70;99.90;;;;;;4939361;29;20122;-73
2022/06/11 01:11:31;;;;;;;8.50;7.60;;;13.70;99.90;;;;;;4938870;29;20038;-74
2022/06/11 01:14:23;;;;;;;12.15;7.47;;;13.70;99.90;;;;;;4939180;29;20071;-75
2022/06/11 01:17:08;;;;;;;10.57;7.88;;;13.70;99.90;;;;;;4939040;29;20122;-74
2022/06/11 01:20:12;;;;;;;9.43;8.05;;;13.70;99.90;;;;;;4956656;29;20027;-74
2022/06/11 01:22:53;;;;;;;11.13;8.45;;;13.60;99.90;;;;;;4913969;29;20403;-73
2022/06/11 01:25:36;;;;;;;8.82;7.72;;;13.60;99.90;;;;;;4938788;29;20043;-74
2022/06/11 01:28:14;;;;;;;8.63;7.78;;;13.70;99.90;;;;;;4956188;29;20027;-73
2022/06/11 01:30:51;;;;;;;12.30;7.28;;;13.60;99.90;;;;;;4956119;29;20062;-74
2022/06/11 01:33:42;;;;;;;11.98;8.55;;;13.70;99.90;;;;;;4956323;29;20428;-74
2022/06/11 01:36:18;;;;;;;12.75;7.53;;;13.60;99.90;;;;;;4935040;29;20039;-74
2022/06/11 01:38:50;;;;;;;12.65;8.02;;;13.60;99.90;;;;;;4956289;29;20036;-74
2022/06/11 01:41:19;;;;;;;9.38;8.13;;;13.60;99.90;;;;;;4955981;29;20038;-74
2022/06/11 01:43:48;;;;;;;12.75;7.47;;;13.60;99.90;;;;;;4955783;28;20019;-74
2022/06/11 01:46:27;;;;;;;10.10;8.77;;;13.60;99.90;;;;;;4955701;29;20031;-74
2022/06/11 01:49:19;;;;;;;9.95;7.38;;;13.60;99.90;;;;;;4956026;29;20054;-74
2022/06/11 01:51:44;;;;;;;11.40;8.65;;;13.60;99.90;;;;;;4954706;29;20035;-73
2022/06/11 01:54:37;;;;;;;9.18;8.27;;;13.50;99.90;;;;;;4938603;29;20030;-73
2022/06/11 01:57:37;;;;;;;17.92;9.02;;;13.50;99.90;;;;;;4938556;29;20085;-73
2022/06/11 02:00:05;;;;;;;8.95;8.05;;;13.50;99.90;;;;;;4956263;29;20094;-73
2022/06/11 02:02:49;;;;;;;10.13;8.30;;;13.50;99.90;;;;;;4955743;29;20031;-73
2022/06/11 02:05:53;;;;;;;11.60;8.75;;;13.50;99.90;;;;;;4938725;29;20354;-73
2022/06/11 02:08:35;;;;;;;11.00;8.13;;;13.40;99.90;;;;;;4900014;29;20039;-73
2022/06/11 02:11:21;;;;;;;11.05;8.85;;;13.40;99.90;;;;;;4938449;29;20122;-74
2022/06/11 02:14:18;;;;;;;12.07;8.75;;;13.40;99.90;;;;;;4956038;29;20029;-73
2022/06/11 02:16:51;;;;;;;10.40;8.10;;;13.30;99.90;;;;;;4955331;29;20415;-73
2022/06/11 02:19:24;;;;;;;10.05;8.73;;;13.30;99.90;;;;;;4955791;29;20050;-73
2022/06/11 02:21:56;;;;;;;12.35;8.35;;;13.30;99.90;;;;;;4955668;29;20060;-73
2022/06/11 02:24:30;;;;;;;10.77;8.52;;;13.30;99.90;;;;;;4938150;29;20031;-74
2022/06/11 02:27:00;;;;;;;15.70;9.07;;;13.30;99.90;;;;;;4955476;29;20454;-73
2022/06/11 02:29:31;;;;;;;11.15;8.32;;;13.30;99.90;;;;;;4938668;29;20118;-74
2022/06/11 02:32:02;;;;;;;13.35;8.27;;;13.20;99.90;;;;;;4955528;29;20027;-73
2022/06/11 02:34:28;;;;;;;12.02;9.23;;;13.20;99.90;;;;;;4956026;29;20024;-73
2022/06/11 02:36:59;;;;;;;13.98;8.85;;;13.20;99.90;;;;;;4938223;29;20091;-73
2022/06/11 02:39:26;;;;;;;10.65;8.02;;;13.20;99.90;;;;;;4938233;29;20035;-74
2022/06/11 02:41:52;;;;;;;10.43;9.10;;;13.20;99.90;;;;;;4938232;29;20035;-73
2022/06/11 02:44:18;;;;;;;13.13;8.43;;;13.10;99.90;;;;;;4938125;29;20479;-73
2022/06/11 02:46:44;;;;;;;13.95;8.02;;;13.20;99.90;;;;;;4938086;29;20035;-73
2022/06/11 02:49:31;;;;;;;12.35;8.00;;;13.20;99.90;;;;;;4955355;29;20032;-73
2022/06/11 02:52:00;;;;;;;9.88;8.73;;;13.10;99.90;;;;;;4955508;29;20031;-73
2022/06/11 02:54:26;;;;;;;11.10;8.10;;;13.10;99.90;;;;;;4954970;29;20102;-73
2022/06/11 02:56:54;;;;;;;10.23;8.95;;;13.00;99.90;;;;;;4956092;28;20391;-73
2022/06/11 02:59:20;;;;;;;10.27;8.40;;;13.00;99.90;;;;;;4941688;29;20035;-73
2022/06/11 03:01:47;;;;;;;11.00;9.25;;;13.00;99.90;;;;;;4958879;29;20035;-74
2022/06/11 03:04:14;;;;;;;14.07;8.88;;;13.10;99.90;;;;;;4959044;29;20122;-74
2022/06/11 03:06:42;;;;;;;12.95;9.30;;;13.10;99.90;;;;;;4958853;29;20050;-73
2022/06/11 03:09:10;;;;;;;14.32;10.00;;;13.10;99.90;;;;;;4941486;29;20035;-73
2022/06/11 03:11:36;;;;;;;11.00;9.05;;;13.10;99.90;;;;;;4958391;29;20086;-73
2022/06/11 03:14:01;;;;;;;11.43;9.20;;;13.10;99.90;;;;;;4958635;29;20028;-73
2022/06/11 03:16:27;;;;;;;17.98;9.27;;;13.10;99.90;;;;;;4958936;29;20062;-73
2022/06/11 03:18:53;;;;;;;14.65;9.13;;;13.10;99.90;;;;;;4958521;29;20034;-73
2022/06/11 03:21:19;;;;;;;10.85;9.40;;;13.10;99.90;;;;;;4958169;29;20114;-73
2022/06/11 03:23:46;;;;;;;11.18;9.07;;;13.10;99.90;;;;;;4958320;29;20587;-73
2022/06/11 03:26:12;;;;;;;11.90;8.70;;;13.00;99.90;;;;;;4957830;29;20079;-74
2022/06/11 03:28:37;;;;;;;9.82;8.68;;;13.00;99.90;;;;;;4940819;29;20040;-73
2022/06/11 03:31:06;;;;;;;10.52;8.75;;;13.10;99.90;;;;;;4941112;29;20027;-73
2022/06/11 03:33:34;;;;;;;13.23;9.25;;;13.10;99.90;;;;;;4957972;29;20417;-73
2022/06/11 03:36:00;;;;;;;11.38;9.23;;;13.10;99.90;;;;;;4940899;29;20043;-73
2022/06/11 03:38:26;;;;;;;11.48;8.63;;;13.10;99.90;;;;;;4940971;29;20435;-74
2022/06/11 03:40:51;;;;;;;10.10;9.10;;;13.10;99.90;;;;;;4957953;29;20054;-73
2022/06/11 03:43:17;;;;;;;13.63;8.32;;;13.10;99.90;;;;;;4958171;29;20027;-73
2022/06/11 03:45:43;;;;;;;12.65;9.07;;;13.10;99.90;;;;;;4958037;29;20391;-73
2022/06/11 03:48:09;;;;;;;11.68;9.18;;;13.20;99.90;;;;;;4958297;29;20083;-73
2022/06/11 03:50:37;;;;;;;13.43;8.32;;;13.20;99.90;;;;;;4940722;29;20027;-73
2022/06/11 03:53:05;;;;;;;13.18;8.20;;;13.20;99.90;;;;;;4957908;29;20031;-73
2022/06/11 03:55:31;;;;;;;9.40;7.68;;;13.30;99.90;;;;;;4958066;29;20436;-73
2022/06/11 03:57:57;;;;;;;9.55;8.63;;;13.30;99.90;;;;;;4957957;29;20027;-73
2022/06/11 04:03:12;;;;;;;14.40;8.60;;;13.40;99.90;;;;;;4958169;29;20042;-74
2022/06/11 04:05:41;;;;;;;9.23;7.70;;;13.40;99.90;;;;;;4957936;29;20102;-73
2022/06/11 04:08:08;;;;;;;11.10;8.40;;;13.50;99.90;;;;;;4957590;28;20035;-73
2022/06/11 04:10:34;;;;;;;8.35;7.35;;;13.50;99.90;;;;;;4940386;29;20035;-73
2022/06/11 04:13:00;;;;;;;8.00;6.75;;;13.60;99.90;;;;;;4957603;29;20081;-73
2022/06/11 04:15:26;;;;;;;8.70;7.47;;;13.70;99.90;;;;;;4957448;29;20455;-73
2022/06/11 04:17:52;;;;;;;7.32;6.63;;;13.80;99.90;;;;;;4957441;29;20083;-73
2022/06/11 04:20:18;;;;;;;15.77;7.70;;;13.80;99.90;;;;;;4940213;29;20034;-73
2022/06/11 04:22:44;;;;;;;11.15;7.13;;;13.90;99.90;;;;;;4957583;29;20031;-73
2022/06/11 04:25:15;;;;;;;12.27;7.45;;;14.00;99.90;;;;;;4957372;29;20039;-73
2022/06/11 04:27:41;;;;;;;8.65;7.40;;;14.10;99.90;;;;;;4957341;29;20042;-73
2022/06/11 04:30:08;;;;;;;12.75;6.80;;;14.10;99.90;;;;;;4956982;29;20386;-73
2022/06/11 04:32:34;;;;;;;6.78;6.03;;;14.30;99.90;;;;;;4957313;29;20035;-74
2022/06/11 04:35:01;;;;;;;10.52;6.38;;;14.30;99.90;;;;;;4939884;29;20364;-73
2022/06/11 04:37:29;;;;;;;6.10;5.50;;;14.40;99.90;;;;;;4957319;29;20031;-73
2022/06/11 04:39:56;;;;;;;7.65;6.13;;;14.50;99.90;;;;;;4939862;29;20383;-73
2022/06/11 04:42:23;;;;;;;7.07;5.68;;;14.60;99.90;;;;;;4957287;29;20423;-74
2022/06/11 04:44:49;;;;;;;6.97;5.82;;;14.70;99.90;;;;;;4956933;29;20059;-86
2022/06/11 04:47:19;;;;;;;7.13;5.35;;;14.70;99.90;;;;;;4940906;29;20031;-87
2022/06/11 04:49:46;;;;;;;7.03;4.65;;;14.90;99.90;;;;;;4940472;29;20027;-88
2022/06/11 04:52:12;;;;;;;5.13;4.68;;;15.00;99.90;;;;;;4940935;29;20034;-90
2022/06/11 04:54:37;;;;;;;5.20;4.70;;;15.00;99.90;;;;;;4957879;29;20051;-88
2022/06/11 04:57:03;;;;;;;5.68;4.72;;;15.10;99.90;;;;;;4940883;29;20126;-91
2022/06/11 04:59:31;;;;;;;5.35;4.85;;;15.20;99.90;;;;;;4957560;29;20035;-87
2022/06/11 05:01:57;;;;;;;6.25;4.55;;;15.40;99.90;;;;;;4957401;29;20027;-88
2022/06/11 05:04:23;;;;;;;6.28;5.45;;;15.50;99.90;;;;;;4957562;29;20027;-89
2022/06/11 05:06:49;;;;;;;6.40;4.30;;;15.60;99.90;;;;;;4957373;29;20082;-90
2022/06/11 05:09:18;;;;;;;5.38;4.30;;;15.80;99.90;;;;;;4957176;29;20047;-88
2022/06/11 05:11:44;;;;;;;4.30;3.90;;;15.90;99.90;;;;;;4940231;29;20444;-83
2022/06/11 05:14:09;;;;;;;5.15;4.75;;;16.00;99.90;;;;;;4956485;29;20523;-82
2022/06/11 05:16:36;;;;;;;6.55;4.22;;;16.10;99.90;;;;;;4939397;29;20031;-82
2022/06/11 05:19:03;;;;;;;7.05;4.47;;;16.20;99.90;;;;;;4939094;29;20046;-81
2022/06/11 05:21:29;;;;;;;4.97;4.18;;;16.30;99.90;;;;;;4956699;29;20034;-82
2022/06/11 05:23:54;;;;;;;3.95;3.55;;;16.30;99.90;;;;;;4939461;29;20462;-83
2022/06/11 05:26:32;;;;;;;5.15;3.80;;;16.50;99.90;;;;;;4939070;29;20407;-82
2022/06/11 05:28:58;;;;;;;4.75;4.20;;;16.60;99.90;;;;;;4939407;29;20027;-81
2022/06/11 05:31:24;;;;;;;4.53;3.30;;;16.70;99.90;;;;;;4956764;29;20396;-87
2022/06/11 05:33:49;;;;;;;4.32;3.40;;;16.80;99.90;;;;;;4956837;29;20074;-84
2022/06/11 05:36:16;;;;;;;3.92;3.60;;;16.90;99.90;;;;;;4939398;29;20434;-84
2022/06/11 05:38:42;;;;;;;6.82;3.40;;;17.00;99.90;;;;;;4956501;29;20059;-85
2022/06/11 05:41:08;;;;;;;6.95;3.22;;;17.10;99.90;;;;;;4939402;29;20082;-87
2022/06/11 05:43:34;;;;;;;5.35;3.10;;;17.20;99.90;;;;;;4956802;29;20067;-87
2022/06/11 05:46:21;;;;;;;4.40;3.05;;;17.30;99.90;;;;;;4956632;29;20031;-78
2022/06/11 05:48:53;;;;;;;4.43;3.42;;;17.30;99.90;;;;;;4956611;29;20027;-88
2022/06/11 05:51:23;;;;;;;4.10;2.90;;;17.40;99.90;;;;;;4956717;29;20019;-86
2022/06/11 05:53:51;;;;;;;3.80;3.28;;;17.40;99.90;;;;;;4956476;29;20027;-81
2022/06/11 05:56:18;;;;;;;8.52;2.85;;;17.50;99.90;;;;;;4956218;29;20055;-82
2022/06/11 05:58:49;;;;;;;3.20;2.65;;;17.60;99.90;;;;;;4938295;29;20114;-82
2022/06/11 06:01:17;;;;;;;7.43;2.83;;;17.70;99.90;;;;;;4938711;29;20031;-82
2022/06/11 06:03:43;;;;;;;6.13;3.45;;;17.70;99.90;;;;;;4955983;29;20038;-82
2022/06/11 06:06:09;;;;;;;4.93;3.03;;;17.80;99.90;;;;;;4955719;29;20031;-65
2022/06/11 06:08:34;;;;;;;6.13;2.70;;;17.90;99.90;;;;;;4955717;29;20035;-65
2022/06/11 06:11:00;;;;;;;2.97;2.75;;;18.10;99.90;;;;;;4955995;29;20081;-65
2022/06/11 06:16:10;;;;;;;2.50;2.30;;;18.40;99.90;;;;;;4955532;29;20059;-65
2022/06/11 06:18:35;;;;;;;2.28;2.05;;;18.70;99.90;;;;;;4955792;29;20019;-65
2022/06/11 06:21:01;;;;;;;2.97;2.28;;;19.20;99.90;;;;;;4955522;29;20024;-66
2022/06/11 06:23:26;;;;;;;3.38;2.20;;;19.70;99.90;;;;;;4938361;29;20459;-65
2022/06/11 06:25:52;;;;;;;4.00;1.98;;;20.10;99.90;;;;;;4955128;29;20059;-65
2022/06/11 06:28:36;;;;;;;3.95;2.20;;;20.40;99.90;;;;;;4955511;29;20055;-65
2022/06/11 06:31:05;;;;;;;2.75;2.10;;;20.60;99.90;;;;;;4957205;28;20074;-66
2022/06/11 06:33:31;;;;;;;5.03;1.90;;;20.80;99.90;;;;;;4959442;29;20031;-66
2022/06/11 06:35:58;;;;;;;2.95;1.70;;;21.00;99.90;;;;;;4959232;29;20050;-66
2022/06/11 06:38:24;;;;;;;2.55;2.10;;;21.20;99.90;;;;;;4959239;29;20203;-66
2022/06/11 06:40:49;;;;;;;3.42;2.10;;;21.10;99.90;;;;;;4959164;29;20435;-63
2022/06/11 06:43:15;;;;;;;3.85;1.80;;;21.30;99.90;;;;;;4959839;29;20035;-63
2022/06/11 06:45:41;;;;;;;1.80;1.70;;;21.50;99.90;;;;;;4959302;29;20027;-63
2022/06/11 06:48:07;;;;;;;1.83;1.50;;;21.70;99.90;;;;;;4958710;29;20027;-63
2022/06/11 06:50:32;;;;;;;2.00;1.65;;;21.80;99.90;;;;;;4941737;29;20046;-65
2022/06/11 06:52:58;;;;;;;3.70;1.70;;;22.00;99.90;;;;;;4959298;29;20027;-65
2022/06/11 06:55:24;;;;;;;4.20;1.95;;;22.00;99.90;;;;;;4958868;29;20506;-65
2022/06/11 06:57:50;;;;;;;2.40;1.95;;;22.10;99.90;;;;;;4958928;29;20027;-65
2022/06/11 07:00:17;;;;;;;4.05;1.92;;;22.20;99.90;;;;;;4958823;29;20074;-68
2022/06/11 07:02:44;;;;;;;3.83;2.10;;;22.30;99.90;;;;;;4959151;29;20421;-65
2022/06/11 07:05:10;;;;;;;4.78;2.00;;;22.30;99.90;;;;;;4958757;29;20062;-64
2022/06/11 07:07:37;;;;;;;1.92;1.83;;;22.30;99.90;;;;;;4958725;29;20039;-64
2022/06/11 07:10:05;;;;;;;4.63;1.80;;;22.50;99.90;;;;;;4958693;29;20412;-65
2022/06/11 07:12:31;;;;;;;3.95;1.80;;;22.60;99.90;;;;;;4958881;29;20062;-65
2022/06/11 07:14:56;;;;;;;4.63;1.83;;;22.70;99.90;;;;;;4958730;29;20457;-64
2022/06/11 07:17:23;;;;;;;3.42;1.70;;;22.90;99.50;;;;;;4958826;29;20046;-64
2022/06/11 07:19:53;;;;;;;2.22;2.03;;;23.00;98.20;;;;;;4958466;29;20412;-64
2022/06/11 07:22:42;;;;;;;6.72;2.10;;;23.10;98.70;;;;;;4958451;29;20023;-64
2022/06/11 07:25:09;;;;;;;3.05;1.80;;;23.20;96.40;;;;;;4958253;29;20463;-64
2022/06/11 07:27:39;;;;;;;6.85;2.13;;;23.30;96.90;;;;;;4958046;29;20039;-64
2022/06/11 07:30:13;;;;;;;4.30;2.00;;;23.40;96.60;;;;;;4958103;29;20090;-64
2022/06/11 07:32:41;;;;;;;3.03;1.88;;;23.50;96.10;;;;;;4958703;29;20037;-64
2022/06/11 07:35:10;;;;;;;4.38;2.05;;;23.70;95.90;;;;;;4958165;29;20522;-65
2022/06/11 07:37:36;;;;;;;4.72;2.20;;;23.90;93.10;;;;;;4957817;29;20035;-63
2022/06/11 07:40:05;;;;;;;5.18;1.77;;;23.80;93.30;;;;;;4958146;29;20036;-63
2022/06/11 07:42:31;;;;;;;;;;;23.80;93.80;;;;;;4957608;28;20038;-63
2022/06/11 07:44:56;;;;;;;3.35;1.98;;;23.90;94.10;;;;;;4957878;29;20378;-63
2022/06/11 07:50:08;;;;;;;4.53;2.10;;;24.20;93.70;;;;;;4957722;29;20038;-64
2022/06/11 07:52:34;;;;;;;3.47;2.08;;;24.40;93.40;;;;;;4957775;29;20119;-64
2022/06/11 07:54:59;;;;;;;4.22;1.98;;;24.80;92.00;;;;;;4957935;29;20114;-63
2022/06/11 07:57:25;;;;;;;3.10;1.80;;;25.00;90.40;;;;;;4957771;29;20122;-64
2022/06/11 07:59:51;;;;;;;2.78;2.33;;;25.00;91.10;;;;;;4957835;29;20027;-64
2022/06/11 08:02:16;;;;;;;4.97;1.90;;;25.20;86.00;;;;;;4957690;29;20166;-65
2022/06/11 08:04:42;;;;;;;3.40;1.90;;;25.20;90.00;;;;;;4957487;29;20030;-64
2022/06/11 08:07:08;;;;;;;6.32;2.13;;;25.20;86.70;;;;;;4957645;29;20031;-70
2022/06/11 08:09:33;;;;;;;2.00;1.80;;;25.00;83.90;;;;;;4957859;29;20035;-67
2022/06/11 08:11:59;;;;;;;2.45;1.73;;;25.00;88.60;;;;;;4957827;29;20027;-65
2022/06/11 08:14:24;;;;;;;2.97;1.85;;;24.90;83.20;;;;;;4957689;29;20062;-66
2022/06/11 08:16:50;;;;;;;7.43;1.80;;;24.80;84.10;;;;;;4957434;29;20063;-66
2022/06/11 08:19:16;;;;;;;2.92;1.70;;;24.80;83.40;;;;;;4957211;29;20054;-65
2022/06/11 08:21:42;;;;;;;4.47;2.40;;;24.90;81.80;;;;;;4957571;29;20023;-66
2022/06/11 08:24:08;;;;;;;2.92;1.90;;;25.10;81.90;;;;;;4957366;29;20050;-64
2022/06/11 08:26:35;;;;;;;2.40;1.80;;;25.00;80.40;;;;;;4957505;29;20615;-68
2022/06/11 08:29:01;;;;;;;4.97;2.00;;;25.00;80.40;;;;;;4957209;29;20065;-67
2022/06/11 08:31:26;;;;;;;2.55;1.70;;;25.10;77.40;;;;;;4939869;29;20028;-66
2022/06/11 08:33:52;;;;;;;7.13;1.58;;;25.30;76.80;;;;;;4957588;29;20030;-66
2022/06/11 08:36:18;;;;;;;2.22;1.40;;;25.50;77.70;;;;;;4957061;29;20043;-70
2022/06/11 08:38:44;;;;;;;2.95;1.50;;;25.70;78.40;;;;;;4956803;29;20456;-69
2022/06/11 08:41:16;;;;;;;4.10;1.63;;;26.00;74.40;;;;;;4956978;29;20070;-64
2022/06/11 08:43:50;;;;;;;4.40;1.77;;;25.80;71.10;;;;;;4956994;29;20115;-67
2022/06/11 08:46:19;;;;;;;2.83;1.42;;;25.60;71.50;;;;;;4957153;29;20102;-67
2022/06/11 08:49:04;;;;;;;4.47;1.67;;;25.80;72.80;;;;;;4956877;29;20039;-63
2022/06/11 08:51:48;;;;;;;8.23;1.67;;;25.90;71.70;;;;;;4954986;29;20031;-64
2022/06/11 08:54:19;;;;;;;6.55;2.05;;;26.00;70.30;;;;;;4956681;28;20027;-64
2022/06/11 08:57:09;;;;;;;4.03;1.60;;;26.10;69.00;;;;;;4956863;29;20039;-63
2022/06/11 08:59:40;;;;;;;3.78;1.20;;;25.90;69.80;;;;;;4956513;29;20036;-63
2022/06/11 09:02:25;;;;;;;6.60;1.52;;;26.40;70.00;;;;;;4956783;29;20034;-66
2022/06/11 09:05:08;;;;;;;3.08;1.33;;;26.70;69.80;;;;;;4956618;29;20051;-66
2022/06/11 09:07:53;;;;;;;2.90;1.15;;;27.20;67.80;;;;;;4956765;29;20114;-66
2022/06/11 09:10:33;;;;;;;3.33;1.15;;;27.60;64.40;;;;;;4956565;29;20038;-66
2022/06/11 09:13:21;;;;;;;5.10;1.55;;;27.80;63.40;;;;;;4956777;29;20027;-65
2022/06/11 09:15:46;;;;;;;2.20;1.50;;;27.50;62.40;;;;;;4939035;29;20031;-66
2022/06/11 09:18:18;;;;;;;3.17;1.27;;;27.50;64.80;;;;;;4956037;29;20034;-65
2022/06/11 09:21:04;;;;;;;2.97;1.40;;;27.70;63.50;;;;;;4956184;29;20122;-66
2022/06/11 09:23:35;;;;;;;5.05;1.55;;;27.90;60.00;;;;;;4956397;29;20468;-59
2022/06/11 09:26:13;;;;;;;4.90;1.30;;;27.90;59.40;;;;;;4956114;29;20066;-82
2022/06/11 09:28:52;;;;;;;3.28;1.70;;;28.00;59.00;;;;;;4939264;29;20482;-82
2022/06/11 09:31:30;;;;;;;3.00;1.45;;;28.10;60.20;;;;;;4956599;29;20023;-82
2022/06/11 09:34:15;;;;;;;0.97;0.90;;;28.70;57.80;;;;;;4939456;29;20027;-84
2022/06/11 09:36:59;;;;;;;1.65;1.00;;;29.20;57.70;;;;;;4956117;29;20034;-84
2022/06/11 09:39:39;;;;;;;1.33;1.15;;;28.50;57.60;;;;;;4956634;29;20035;-85
2022/06/11 09:42:19;;;;;;;1.95;1.10;;;28.20;59.60;;;;;;4939295;29;20387;-85
2022/06/11 09:44:51;;;;;;;1.90;1.00;;;28.10;60.40;;;;;;4956073;29;20031;-84
2022/06/11 09:47:40;;;;;;;3.17;1.35;;;28.50;58.20;;;;;;4939153;29;20467;-85
2022/06/11 09:50:40;;;;;;;4.18;1.10;;;28.40;56.20;;;;;;4956350;29;20027;-84
2022/06/11 09:53:12;;;;;;;4.15;1.30;;;27.80;56.30;;;;;;4913338;29;20039;-83
2022/06/11 09:55:59;;;;;;;3.80;1.50;;;27.40;59.80;;;;;;4956006;29;20026;-84
2022/06/11 09:58:25;;;;;;;2.03;1.00;;;27.70;61.50;;;;;;4955617;29;20031;-84
2022/06/11 10:00:57;;;;;;;3.83;1.30;;;27.70;60.70;;;;;;4938630;29;20029;-83
2022/06/11 10:03:38;;;;;;;3.03;1.15;;;27.20;60.30;;;;;;4939326;29;20031;-84
2022/06/11 10:06:31;;;;;;;5.40;0.95;;;27.20;60.80;;;;;;4955546;28;20431;-84
2022/06/11 10:09:10;;;;;;;3.63;1.20;;;26.50;59.80;;;;;;4946730;29;20039;-84
2022/06/11 10:11:46;;;;;;;2.88;0.90;;;26.40;61.70;;;;;;4955859;29;20034;-83
2022/06/11 10:14:30;;;;;;;2.15;0.98;;;26.70;58.70;;;;;;4956013;29;20030;-84
2022/06/11 10:17:24;;;;;;;6.57;0.98;;;26.80;56.30;;;;;;4955823;29;20032;-83
2022/06/11 10:19:55;;;;;;;0.90;0.68;;;27.10;56.10;;;;;;4938885;29;20424;-83
2022/06/11 10:22:29;;;;;;;2.55;0.90;;;27.70;55.70;;;;;;4955792;29;20034;-84
2022/06/11 10:25:20;;;;;;;1.33;0.90;;;28.50;55.60;;;;;;4955521;29;20061;-84
2022/06/11 10:27:59;;;;;;;3.00;0.88;;;29.30;51.20;;;;;;4955956;29;20106;-84
2022/06/11 10:30:27;;;;;;;9.00;1.10;;;29.60;50.70;;;;;;4955884;29;20115;-85
2022/06/11 10:32:55;;;;;;;1.75;1.27;;;29.50;49.30;;;;;;4955809;29;20098;-86
2022/06/11 10:35:41;;;;;;;1.30;0.73;;;29.90;50.80;;;;;;4955735;29;20031;-87
2022/06/11 10:38:43;;;;;;;1.90;0.80;;;30.60;50.40;;;;;;4955638;29;20094;-87
2022/06/11 10:41:16;;;;;;;1.25;0.98;;;30.90;48.60;;;;;;4956057;29;20110;-86
2022/06/11 10:43:57;;;;;;;1.58;0.70;;;30.90;48.10;;;;;;4955736;29;20034;-86
2022/06/11 10:46:23;;;;;;;2.53;0.90;;;31.00;46.80;;;;;;4955659;29;20027;-87
2022/06/11 10:48:49;;;;;;;3.60;0.85;;;30.70;45.50;;;;;;4955903;29;20384;-85
2022/06/11 10:51:26;;;;;;;2.28;0.63;;;30.60;47.30;;;;;;4955704;29;20063;-86
2022/06/11 10:54:12;;;;;;;3.60;0.98;;;30.90;46.90;;;;;;4955664;29;20028;-86
2022/06/11 10:56:47;;;;;;;2.15;1.00;;;31.00;45.40;;;;;;4938417;29;20043;-85
2022/06/11 10:59:35;;;;;;;3.05;1.20;;;29.60;47.70;;;;;;4938303;29;20468;-85
2022/06/11 11:02:20;;;;;;;0.90;0.80;;;29.50;49.30;;;;;;4938636;29;20249;-84
2022/06/11 11:05:11;;;;;;;3.13;0.70;;;29.50;47.40;;;;;;4955495;29;20055;-84
2022/06/11 11:07:46;;;;;;;3.75;0.98;;;29.20;48.00;;;;;;4938224;29;20094;-84
2022/06/11 11:10:25;;;;;;;1.75;0.95;;;29.30;50.30;;;;;;4955196;29;20112;-85
2022/06/11 11:12:58;;;;;;;4.53;1.00;;;29.30;47.80;;;;;;4937982;29;20030;-84
2022/06/11 11:15:28;;;;;;;1.27;0.65;;;29.50;48.10;;;;;;4955285;29;20024;-85
2022/06/11 11:17:58;;;;;;;2.95;0.77;;;29.30;48.90;;;;;;4956362;28;20031;-84
2022/06/11 11:20:37;;;;;;;1.60;0.70;;;29.30;49.10;;;;;;4958940;29;20023;-85
2022/06/11 11:23:12;;;;;;;1.58;0.90;;;29.80;48.90;;;;;;4959091;29;20345;-84
2022/06/11 11:25:49;;;;;;;2.58;0.98;;;30.30;47.80;;;;;;4958289;29;20059;-83
2022/06/11 11:28:47;;;;;;;3.22;1.10;;;30.50;47.70;;;;;;4941414;29;20496;-84
2022/06/11 11:31:23;;;;;;;1.58;1.00;;;30.80;47.30;;;;;;4958676;29;20034;-83
2022/06/11 11:34:15;;;;;;;3.25;0.77;;;30.80;45.70;;;;;;4958705;29;20027;-84
2022/06/11 11:36:41;;;;;;;2.45;0.63;;;30.90;45.00;;;;;;4958022;29;20488;-83
2022/06/11 11:39:13;;;;;;;2.13;0.82;;;31.10;46.60;;;;;;4941224;29;20023;-85
2022/06/11 11:41:49;;;;;;;1.50;0.70;;;30.90;46.20;;;;;;4958456;29;20416;-84
2022/06/11 11:44:17;;;;;;;3.03;1.10;;;31.40;45.50;;;;;;4958216;29;20035;-85
2022/06/11 11:46:48;;;;;;;3.20;0.80;;;31.20;43.20;;;;;;4941613;29;20122;-84
2022/06/11 11:49:24;;;;;;;2.83;0.95;;;31.30;42.90;;;;;;4941255;29;20032;-84
2022/06/11 11:51:51;;;;;;;1.58;0.68;;;31.50;43.80;;;;;;4941567;29;20380;-84
2022/06/11 11:54:20;;;;;;;2.05;0.90;;;31.50;43.60;;;;;;4957883;29;20034;-83
2022/06/11 11:56:58;;;;;;;3.40;0.63;;;32.10;43.20;;;;;;4940619;29;20574;-83
2022/06/11 11:59:32;;;;;;;4.75;0.93;;;32.50;43.40;;;;;;4957960;29;20472;-83
2022/06/11 12:02:17;;;;;;;1.25;0.55;;;32.90;42.50;;;;;;4957831;29;20111;-82
2022/06/11 12:05:00;;;;;;;2.63;0.80;;;32.20;40.20;;;;;;4957973;29;20023;-82
2022/06/11 12:07:33;;;;;;;4.43;1.13;;;31.80;42.00;;;;;;4957824;29;20035;-82
2022/06/11 12:10:29;;;;;;;2.13;0.63;;;31.10;42.00;;;;;;4957627;29;20114;-82
2022/06/11 12:12:57;;;;;;;3.75;0.88;;;30.20;42.30;;;;;;4957675;29;20095;-81
2022/06/11 12:15:29;;;;;;;0.95;0.50;;;30.40;43.80;;;;;;4957615;29;20034;-81
2022/06/11 12:18:01;;;;;;;2.55;1.33;;;31.10;42.70;;;;;;4957549;29;20043;-81
2022/06/11 12:20:31;;;;;;;1.17;0.70;;;31.00;41.50;;;;;;4957350;29;20480;-82
2022/06/11 12:23:24;;;;;;;0.93;0.60;;;30.70;44.00;;;;;;4957686;29;20038;-82
2022/06/11 12:26:03;;;;;;;3.90;0.80;;;31.00;44.00;;;;;;4940045;29;20078;-81
2022/06/11 12:28:35;;;;;;;1.83;1.23;;;31.10;41.10;;;;;;4939864;29;20031;-81
2022/06/11 12:31:01;;;;;;;6.28;0.88;;;30.60;43.20;;;;;;4957316;29;20027;-82
2022/06/11 12:33:27;;;;;;;1.45;0.82;;;30.90;42.80;;;;;;4940103;29;20471;-83
2022/06/11 12:36:14;;;;;;;3.45;0.60;;;30.50;41.70;;;;;;4940190;29;20031;-82
2022/06/11 12:39:02;;;;;;;1.70;0.85;;;30.90;43.50;;;;;;4957205;29;20114;-82
2022/06/11 12:41:39;;;;;;;2.67;0.85;;;31.40;41.60;;;;;;4957349;29;20118;-83
2022/06/11 12:44:20;;;;;;;1.60;0.83;;;32.10;40.40;;;;;;4957737;29;20106;-83
2022/06/11 12:46:51;;;;;;;2.60;0.88;;;31.50;39.70;;;;;;4940340;29;20271;-83
2022/06/11 12:49:24;;;;;;;3.25;0.73;;;31.50;39.90;;;;;;4957076;29;20058;-83
2022/06/11 12:51:59;;;;;;;1.25;0.60;;;31.30;39.40;;;;;;4957164;29;20032;-83
2022/06/11 12:54:36;;;;;;;2.03;0.70;;;31.10;42.00;;;;;;4940086;29;20113;-82
2022/06/11 12:57:22;;;;;;;1.80;0.80;;;30.80;40.30;;;;;;4939980;29;20040;-82
2022/06/11 13:00:11;;;;;;;1.02;0.60;;;30.40;40.50;;;;;;4957059;29;20384;-81
2022/06/11 13:02:59;;;;;;;1.25;0.63;;;30.50;40.90;;;;;;4939500;29;20399;-81
2022/06/11 13:05:28;;;;;;;;;;;31.00;41.80;;;;;;4939738;29;20117;-81
2022/06/11 13:07:58;;;;;;;;;;;32.10;40.00;;;;;;4939459;29;19907;-82
2022/06/11 13:10:44;;;;;;;0.98;0.52;;;31.60;39.60;;;;;;4939543;29;19906;-82
2022/06/11 13:13:37;;;;;;;1.60;0.73;;;31.20;39.00;;;;;;4939362;29;20143;-82
2022/06/11 13:16:16;;;;;;;0.85;0.60;;;31.00;38.70;;;;;;4955984;29;20361;-82
2022/06/11 13:18:57;;;;;;;2.50;0.80;;;31.20;39.30;;;;;;4956292;29;20086;-81
2022/06/11 13:21:30;;;;;;;2.72;0.50;;;31.00;39.00;;;;;;4956737;29;20038;-82